Terminal Aerodrome Forecast
Issued by NWS Detroit/Pontiac, MI

Home | Current Version | Previous Version | Text Only | Print | Product List | Glossary On
Versions: 1 2 3 4 5 6 7 8 9 10 11 12 13 14 15 16 17 18 19 20 21
230
FTUS43 KDTX 222334
TAFFNT
TAF
KFNT 222334Z 2300/2324 17012KT P6SM -DZ OVC015
     FM230200 18010KT 5SM SHRA BR OVC007
     FM230400 20009KT 1SM BR OVC007
     FM231100 23012KT 5SM -SHRA BR OVC010
     FM231300 23015G25KT 5SM -RASN OVC015
     FM231700 28017G25KT 5SM -SHSN OVC020=

USA.gov is the U.S. government's official web portal to all federal, state and local government web resources and services.